Time;durP1;ratioP1;P1;durP2;ratioP2;P2;SDS_P1;SDS_P2;PMS_P1;PMS_P2;Temp;Humidity;BMP_temperature;BMP_pressure;BME280_temperature;BME280_humidity;BME280_pressure;Samples;Min_cycle;Max_cycle;Signal;HPM_P1;HPM_P2
2023/04/12 00:00:59;;;;;;;;;;;333.00;2329.60;;;;;;5066145;28;19912;-72
2023/04/12 00:03:25;;;;;;;;;;;333.00;2329.60;;;;;;5061620;28;19917;-69
2023/04/12 00:05:53;;;;;;;;;;;333.00;2329.60;;;;;;5061632;28;19911;-70
2023/04/12 00:08:23;;;;;;;;;;;333.10;2329.60;;;;;;5064051;28;19944;-71
2023/04/12 00:10:49;;;;;;;;;;;333.10;2329.60;;;;;;5056391;28;19904;-71
2023/04/12 00:13:15;;;;;;;;;;;333.10;2329.60;;;;;;5060290;28;19908;-69
2023/04/12 00:15:40;;;;;;;;;;;333.00;2329.60;;;;;;5067684;28;19908;-71
2023/04/12 00:18:06;;;;;;;;;;;332.90;2329.60;;;;;;5073716;28;20377;-70
2023/04/12 00:20:31;;;;;;;;;;;332.90;2329.60;;;;;;5065661;28;20265;-71
2023/04/12 00:22:57;;;;;;;;;;;332.90;2329.60;;;;;;5053226;28;19913;-70
2023/04/12 00:25:22;;;;;;;;;;;332.90;2329.60;;;;;;5053508;28;19951;-70
2023/04/12 00:27:48;;;;;;;;;;;332.80;2329.60;;;;;;5053292;28;19911;-72
2023/04/12 00:30:13;;;;;;;;;;;332.90;2329.60;;;;;;5053323;28;19943;-78
2023/04/12 00:32:40;;;;;;;;;;;332.80;2329.60;;;;;;5053155;28;19912;-69
2023/04/12 00:35:05;;;;;;;;;;;308.10;2304.00;;;;;;5053224;28;19905;-71
2023/04/12 00:37:31;;;;;;;;;;;332.90;2329.60;;;;;;5056985;28;19904;-71
2023/04/12 00:39:57;;;;;;;;;;;332.90;2329.60;;;;;;5087131;28;19999;-73
2023/04/12 00:42:22;;;;;;;;;;;332.90;2329.60;;;;;;5072171;28;19912;-76
2023/04/12 00:44:48;;;;;;;;;;;332.90;2329.60;;;;;;5082759;28;20360;-70
2023/04/12 00:47:13;;;;;;;;;;;332.80;2329.60;;;;;;5082188;28;19916;-71
2023/04/12 00:49:40;;;;;;;;;;;332.80;2329.60;;;;;;5076050;28;19991;-70
2023/04/12 00:52:07;;;;;;;;;;;308.10;2304.00;;;;;;5078941;28;19927;-70
2023/04/12 00:54:33;;;;;;;;;;;308.10;2304.00;;;;;;5078659;28;19910;-71
2023/04/12 00:57:02;;;;;;;;;;;308.00;2304.00;;;;;;5079041;28;19953;-70
2023/04/12 00:59:28;;;;;;;;;;;308.00;2304.00;;;;;;5079188;28;19963;-77
2023/04/12 01:01:54;;;;;;;;;;;307.90;2304.00;;;;;;5081713;28;19951;-72
2023/04/12 01:04:21;;;;;;;;;;;308.00;2304.00;;;;;;5075857;28;19935;-70
2023/04/12 01:06:49;;;;;;;;;;;307.90;2304.00;;;;;;5079943;28;19905;-73
2023/04/12 01:09:26;;;;;;;;;;;307.80;2304.00;;;;;;5070669;28;19954;-70
2023/04/12 01:11:57;;;;;;;;;;;307.80;2304.00;;;;;;5056587;28;19959;-70
2023/04/12 01:14:35;;;;;;;;;;;307.80;2304.00;;;;;;5056741;28;19955;-76
2023/04/12 01:17:02;;;;;;;;;;;307.70;2304.00;;;;;;5056342;28;19909;-70
2023/04/12 01:19:28;;;;;;;;;;;307.60;2304.00;;;;;;5056566;28;19912;-71
2023/04/12 01:22:15;;;;;;;;;;;307.70;2304.00;;;;;;5056273;28;20281;-71
2023/04/12 01:24:48;;;;;;;;;;;307.70;2304.00;;;;;;5056067;28;19996;-70
2023/04/12 01:27:27;;;;;;;;;;;307.60;2304.00;;;;;;5056428;28;19905;-73
2023/04/12 01:29:54;;;;;;;;;;;307.50;2304.00;;;;;;5071592;28;19996;-72
2023/04/12 01:32:19;;;;;;;;;;;307.50;2304.00;;;;;;5063187;28;20300;-70
2023/04/12 01:34:45;;;;;;;;;;;307.40;2304.00;;;;;;5095757;28;19904;-71
2023/04/12 01:37:11;;;;;;;;;;;307.40;2304.00;;;;;;5096252;28;19926;-77
2023/04/12 01:39:37;;;;;;;;;;;307.30;2304.00;;;;;;5095826;28;19946;-78
2023/04/12 01:42:03;;;;;;;;;;;307.30;2304.00;;;;;;5095856;28;20418;-70
2023/04/12 01:44:28;;;;;;;;;;;307.20;2304.00;;;;;;5095650;28;19908;-71
2023/04/12 01:46:55;;;;;;;;;;;307.20;2304.00;;;;;;5085645;28;20403;-76
2023/04/12 01:49:21;;;;;;;;;;;282.50;2278.40;;;;;;5095539;28;19904;-73
2023/04/12 01:51:46;;;;;;;;;;;282.50;2278.40;;;;;;5095804;28;19957;-72
2023/04/12 01:54:16;;;;;;;;;;;282.50;2278.40;;;;;;5094587;28;19908;-75
2023/04/12 01:56:46;;;;;;;;;;;282.50;2278.40;;;;;;5095585;28;19904;-77
2023/04/12 01:59:13;;;;;;;;;;;282.50;2278.40;;;;;;5095501;28;19931;-70
2023/04/12 02:01:39;;;;;;;;;;;282.10;2278.40;;;;;;5096000;28;20342;-74
2023/04/12 02:04:05;;;;;;;;;;;282.20;2278.40;;;;;;5095898;28;19991;-70
2023/04/12 02:06:31;;;;;;;;;;;282.20;2278.40;;;;;;5094638;28;20277;-74
2023/04/12 02:09:01;;;;;;;;;;;282.00;2278.40;;;;;;5094041;28;19947;-76
2023/04/12 02:11:27;;;;;;;;;;;281.80;2278.40;;;;;;5095310;28;19939;-70
2023/04/12 02:13:53;;;;;;;;;;;281.60;2278.40;;;;;;5094814;28;20312;-77
2023/04/12 02:16:19;;;;;;;;;;;281.70;2278.40;;;;;;5086470;28;19959;-70
2023/04/12 02:18:45;;;;;;;;;;;281.60;2278.40;;;;;;5090972;28;19908;-73
2023/04/12 02:21:11;;;;;;;;;;;281.70;2278.40;;;;;;5095012;28;19904;-72
2023/04/12 02:23:36;;;;;;;;;;;281.60;2278.40;;;;;;5094699;28;20025;-76
2023/04/12 02:26:02;;;;;;;;;;;;;;;;;;5095045;28;19911;-76
2023/04/12 02:28:28;;;;;;;;;;;256.80;2252.80;;;;;;5095156;28;19964;-71
2023/04/12 02:30:54;;;;;;;;;;;256.70;2252.80;;;;;;5095058;28;20006;-70
2023/04/12 02:33:28;;;;;;;;;;;256.70;2252.80;;;;;;5095220;28;19912;-71
2023/04/12 02:35:55;;;;;;;;;;;256.60;2252.80;;;;;;5094999;28;19983;-70
2023/04/12 02:38:22;;;;;;;;;;;256.70;2252.80;;;;;;5093231;28;20340;-71
2023/04/12 02:40:47;;;;;;;;;;;256.80;2252.80;;;;;;5094882;28;19904;-70
2023/04/12 02:43:13;;;;;;;;;;;256.80;2252.80;;;;;;5094679;28;20418;-71
2023/04/12 02:45:38;;;;;;;;;;;256.80;2252.80;;;;;;5094621;28;20376;-71
2023/04/12 02:48:04;;;;;;;;;;;256.90;2252.80;;;;;;5080572;28;19941;-70
2023/04/12 02:50:30;;;;;;;;;;;256.80;2252.80;;;;;;5094857;28;19943;-70
2023/04/12 02:52:55;;;;;;;;;;;256.80;2252.80;;;;;;5088461;28;19916;-74
2023/04/12 02:55:21;;;;;;;;;;;256.80;2252.80;;;;;;5094411;28;19910;-75
2023/04/12 02:57:47;;;;;;;;;;;256.90;2252.80;;;;;;5094574;28;19919;-71
2023/04/12 03:00:16;;;;;;;;;;;256.90;2252.80;;;;;;5094317;28;19957;-71
2023/04/12 03:02:42;;;;;;;;;;;256.80;2252.80;;;;;;5094813;28;19912;-71
2023/04/12 03:05:08;;;;;;;;;;;256.70;2252.80;;;;;;5082287;28;20011;-77
2023/04/12 03:07:34;;;;;;;;;;;256.60;2252.80;;;;;;5091072;28;19911;-77
2023/04/12 03:10:00;;;;;;;;;;;256.60;2252.80;;;;;;5094414;28;19911;-70
2023/04/12 03:12:26;;;;;;;;;;;256.40;2252.80;;;;;;5090515;28;19904;-70
2023/04/12 03:14:51;;;;;;;;;;;256.40;2252.80;;;;;;5084887;28;19991;-78
2023/04/12 03:17:17;;;;;;;;;;;256.40;2252.80;;;;;;5094130;28;19912;-73
2023/04/12 03:19:42;;;;;;;;;;;256.30;2252.80;;;;;;5094119;28;19904;-70
2023/04/12 03:22:08;;;;;;;;;;;256.20;2252.80;;;;;;5093833;28;19958;-77
2023/04/12 03:24:34;;;;;;;;;;;256.20;2252.80;;;;;;5094207;28;19911;-70
2023/04/12 03:27:01;;;;;;;;;;;256.20;2252.80;;;;;;5094421;28;19910;-70
2023/04/12 03:29:26;;;;;;;;;;;256.10;2252.80;;;;;;5094040;28;20002;-70
2023/04/12 03:31:52;;;;;;;;;;;256.10;2252.80;;;;;;5093507;28;20011;-74
2023/04/12 03:34:17;;;;;;;;;;;256.10;2252.80;;;;;;5093959;28;19947;-74
2023/04/12 03:36:43;;;;;;;;;;;256.00;2252.80;;;;;;5093782;28;19904;-70
2023/04/12 03:39:08;;;;;;;;;;;256.00;2252.80;;;;;;5093941;28;19908;-74
2023/04/12 03:41:34;;;;;;;;;;;231.30;2252.80;;;;;;5093499;28;20345;-75
2023/04/12 03:43:59;;;;;;;;;;;231.30;2252.80;;;;;;5093828;28;20380;-70
2023/04/12 03:46:25;;;;;;;;;;;231.10;2252.80;;;;;;5093319;28;19928;-71
2023/04/12 03:48:51;;;;;;;;;;;231.10;2252.80;;;;;;5093677;28;20341;-74
2023/04/12 03:51:16;;;;;;;;;;;231.10;2252.80;;;;;;5093684;28;19904;-70
2023/04/12 03:53:42;;;;;;;;;;;231.00;2252.80;;;;;;5093694;28;19965;-70
2023/04/12 03:56:08;;;;;;;;;;;231.00;2252.80;;;;;;5093420;28;19904;-78
2023/04/12 03:58:33;;;;;;;;;;;231.00;2252.80;;;;;;5084227;28;19926;-73
2023/04/12 04:01:04;;;;;;;;;;;230.80;2252.80;;;;;;5089867;28;19910;-73
2023/04/12 04:03:33;;;;;;;;;;;230.90;2252.80;;;;;;5083162;28;19912;-71
2023/04/12 04:06:00;;;;;;;;;;;230.90;2252.80;;;;;;5090753;28;19911;-71
2023/04/12 04:08:25;;;;;;;;;;;230.90;2252.80;;;;;;5093735;28;19990;-71
2023/04/12 04:10:51;;;;;;;;;;;230.90;2252.80;;;;;;5093380;28;19963;-72
2023/04/12 04:13:16;;;;;;;;;;;230.90;2252.80;;;;;;5093290;28;19957;-77
2023/04/12 04:15:42;;;;;;;;;;;231.00;2252.80;;;;;;5089125;28;19908;-70
2023/04/12 04:18:08;;;;;;;;;;;231.00;2252.80;;;;;;5087950;28;19908;-73
2023/04/12 04:20:33;;;;;;;;;;;230.90;2252.80;;;;;;5096208;28;19964;-71
2023/04/12 04:22:59;;;;;;;;;;;231.00;2252.80;;;;;;5097485;28;19916;-71
2023/04/12 04:25:28;;;;;;;;;;;230.80;2252.80;;;;;;5097535;28;19915;-71
2023/04/12 04:27:54;;;;;;;;;;;230.60;2252.80;;;;;;5097546;28;20440;-76
2023/04/12 04:30:21;;;;;;;;;;;230.70;2252.80;;;;;;5092626;28;19912;-72
2023/04/12 04:32:47;;;;;;;;;;;230.80;2252.80;;;;;;5088827;28;20345;-76
2023/04/12 04:35:15;;;;;;;;;;;230.90;2252.80;;;;;;5087295;28;19914;-71
2023/04/12 04:37:42;;;;;;;;;;;230.80;2252.80;;;;;;5079800;28;20288;-70
2023/04/12 04:40:08;;;;;;;;;;;230.80;2252.80;;;;;;5081556;28;19919;-71
2023/04/12 04:42:33;;;;;;;;;;;230.80;2252.80;;;;;;5097490;28;20006;-70
2023/04/12 04:45:01;;;;;;;;;;;230.80;2252.80;;;;;;5091417;28;19908;-71
2023/04/12 04:47:29;;;;;;;;;;;230.90;2252.80;;;;;;5088116;28;20381;-77
2023/04/12 04:49:56;;;;;;;;;;;231.00;2252.80;;;;;;5067555;28;20361;-70
2023/04/12 04:52:22;;;;;;;;;;;231.00;2252.80;;;;;;5060143;28;19905;-70
2023/04/12 04:54:48;;;;;;;;;;;231.10;2252.80;;;;;;5065971;28;20391;-69
2023/04/12 04:57:13;;;;;;;;;;;231.10;2252.80;;;;;;5068215;28;19950;-69
2023/04/12 04:59:39;;;;;;;;;;;231.10;2252.80;;;;;;5063237;28;19905;-69
2023/04/12 05:02:04;;;;;;;;;;;231.00;2252.80;;;;;;5063367;28;19919;-70
2023/04/12 05:04:30;;;;;;;;;;;231.00;2252.80;;;;;;5067580;28;19936;-70
2023/04/12 05:06:56;;;;;;;;;;;231.10;2252.80;;;;;;5069784;28;19911;-69
2023/04/12 05:09:21;;;;;;;;;;;231.00;2252.80;;;;;;5066860;28;19905;-70
2023/04/12 05:11:47;;;;;;;;;;;231.00;2252.80;;;;;;5067164;28;19958;-69
2023/04/12 05:14:12;;;;;;;;;;;231.00;2252.80;;;;;;5065666;28;19916;-69
2023/04/12 05:16:38;;;;;;;;;;;231.20;2252.80;;;;;;5061919;28;20046;-69
2023/04/12 05:19:03;;;;;;;;;;;231.20;2252.80;;;;;;5060576;28;20270;-69
2023/04/12 05:21:29;;;;;;;;;;;231.20;2252.80;;;;;;5067963;28;20318;-70
2023/04/12 05:23:55;;;;;;;;;;;231.20;2252.80;;;;;;5056657;28;19908;-70
2023/04/12 05:26:21;;;;;;;;;;;231.30;2252.80;;;;;;5065150;28;19905;-70
2023/04/12 05:28:46;;;;;;;;;;;231.30;2252.80;;;;;;5059354;28;19912;-72
2023/04/12 05:31:12;;;;;;;;;;;256.00;2252.80;;;;;;5062651;28;19996;-71
2023/04/12 05:33:37;;;;;;;;;;;256.00;2252.80;;;;;;5065329;28;19926;-77
2023/04/12 05:36:03;;;;;;;;;;;256.10;2252.80;;;;;;5060609;28;19992;-72
2023/04/12 05:38:29;;;;;;;;;;;256.10;2252.80;;;;;;5075408;28;19905;-74
2023/04/12 05:40:54;;;;;;;;;;;256.00;2252.80;;;;;;5062439;28;19915;-70
2023/04/12 05:43:20;;;;;;;;;;;256.10;2252.80;;;;;;5062721;28;19919;-70
2023/04/12 05:45:45;;;;;;;;;;;256.20;2252.80;;;;;;5059599;28;19924;-70
2023/04/12 05:48:12;;;;;;;;;;;256.20;2252.80;;;;;;5062770;28;20281;-73
2023/04/12 05:50:38;;;;;;;;;;;256.20;2252.80;;;;;;5058178;28;20357;-70
2023/04/12 05:53:03;;;;;;;;;;;256.20;2252.80;;;;;;5066900;28;19939;-69
2023/04/12 05:55:29;;;;;;;;;;;256.40;2252.80;;;;;;5064761;28;20266;-73
2023/04/12 05:57:55;;;;;;;;;;;256.40;2252.80;;;;;;5064691;28;20343;-72
2023/04/12 06:00:20;;;;;;;;;;;256.60;2252.80;;;;;;5066885;28;19955;-70
2023/04/12 06:02:47;;;;;;;;;;;256.60;2252.80;;;;;;5060809;28;19912;-72
2023/04/12 06:05:13;;;;;;;;;;;256.60;2252.80;;;;;;5061517;28;20038;-72
2023/04/12 06:07:39;;;;;;;;;;;256.60;2252.80;;;;;;5065620;28;20353;-71
2023/04/12 06:10:05;;;;;;;;;;;256.60;2252.80;;;;;;5064113;28;19912;-71
2023/04/12 06:12:31;;;;;;;;;;;256.60;2252.80;;;;;;5067626;28;19909;-70
2023/04/12 06:14:57;;;;;;;;;;;256.60;2252.80;;;;;;5058121;28;19913;-70
2023/04/12 06:17:22;;;;;;;;;;;256.90;2252.80;;;;;;5069932;28;19909;-70
2023/04/12 06:19:48;;;;;;;;;;;281.60;2278.40;;;;;;5067182;28;19905;-70
2023/04/12 06:22:14;;;;;;;;;;;256.90;2252.80;;;;;;5064595;28;20428;-74
2023/04/12 06:24:39;;;;;;;;;;;281.70;2278.40;;;;;;5067789;28;19939;-70
2023/04/12 06:27:05;;;;;;;;;;;281.80;2278.40;;;;;;5068276;28;19908;-71
2023/04/12 06:29:31;;;;;;;;;;;282.00;2278.40;;;;;;5057417;28;19904;-71
2023/04/12 06:31:56;;;;;;;;;;;282.10;2278.40;;;;;;5060479;28;20303;-71
2023/04/12 06:34:22;;;;;;;;;;;282.10;2278.40;;;;;;5061779;28;19905;-71
2023/04/12 06:36:47;;;;;;;;;;;282.20;2278.40;;;;;;5062949;28;20014;-71
2023/04/12 06:39:15;;;;;;;;;;;282.40;2278.40;;;;;;5058568;28;20281;-70
2023/04/12 06:41:42;;;;;;;;;;;282.50;2278.40;;;;;;5058654;28;19905;-70
2023/04/12 06:44:08;;;;;;;;;;;307.20;2304.00;;;;;;5064787;28;19916;-73
2023/04/12 06:46:34;;;;;;;;;;;307.30;2304.00;;;;;;5059034;28;19920;-70
2023/04/12 06:48:59;;;;;;;;;;;307.30;2304.00;;;;;;5070908;28;19959;-70
2023/04/12 06:51:26;;;;;;;;;;;307.30;2304.00;;;;;;5058646;28;19904;-72
2023/04/12 06:53:52;;;;;;;;;;;307.40;2304.00;;;;;;5059544;28;19984;-71
2023/04/12 06:56:19;;;;;;;;;;;307.60;2304.00;;;;;;5067836;28;19996;-71
2023/04/12 06:58:45;;;;;;;;;;;307.80;2304.00;;;;;;5062270;28;19912;-74
2023/04/12 07:01:12;;;;;;;;;;;307.70;2304.00;;;;;;5063799;28;19911;-77
2023/04/12 07:03:38;;;;;;;;;;;307.70;2304.00;;;;;;5061239;28;19978;-70
2023/04/12 07:06:03;;;;;;;;;;;307.80;2304.00;;;;;;5060313;28;19908;-72
2023/04/12 07:08:29;;;;;;;;;;;307.70;2304.00;;;;;;5066918;28;19904;-71
2023/04/12 07:10:55;;;;;;;;;;;307.80;2304.00;;;;;;5074486;28;19909;-71
2023/04/12 07:13:21;;;;;;;;;;;307.90;2304.00;;;;;;5063344;28;19904;-71
2023/04/12 07:15:49;;;;;;;;;;;332.80;2329.60;;;;;;5060827;28;19916;-72
2023/04/12 07:18:15;;;;;;;;;;;332.90;2329.60;;;;;;5069118;28;20285;-72
2023/04/12 07:20:41;;;;;;;;;;;332.90;2278.40;;;;;;5071058;28;19961;-74
2023/04/12 07:23:06;;;;;;;;;;;333.00;2329.60;;;;;;5066082;28;19912;-72
2023/04/12 07:25:32;;;;;;;;;;;333.00;2329.60;;;;;;5070957;28;19963;-73
2023/04/12 07:27:58;;;;;;;;;;;333.00;2329.60;;;;;;5068167;28;19911;-71
2023/04/12 07:30:24;;;;;;;;;;;333.10;2278.40;;;;;;5063328;28;19991;-71
2023/04/12 07:32:50;;;;;;;;;;;333.30;2278.40;;;;;;5064661;28;19905;-73
2023/04/12 07:35:15;;;;;;;;;;;333.40;2201.60;;;;;;5064527;28;19974;-70
2023/04/12 07:37:41;;;;;;;;;;;333.50;2201.60;;;;;;5060357;28;19905;-70
2023/04/12 07:40:07;;;;;;;;;;;333.50;2176.00;;;;;;5056672;28;20003;-69
2023/04/12 07:42:32;;;;;;;;;;;333.60;2124.80;;;;;;5060884;28;19958;-69
2023/04/12 07:44:58;;;;;;;;;;;358.40;2124.80;;;;;;5069932;28;19963;-72
2023/04/12 07:47:23;;;;;;;;;;;358.50;2150.40;;;;;;5060698;28;19920;-70
2023/04/12 07:49:49;;;;;;;;;;;358.60;2048.00;;;;;;5064777;28;19995;-71
2023/04/12 07:52:15;;;;;;;;;;;358.70;2048.00;;;;;;5064483;28;19912;-71
2023/04/12 07:54:41;;;;;;;;;;;358.70;2048.00;;;;;;5056696;28;19905;-70
2023/04/12 07:57:07;;;;;;;;;;;358.60;2022.40;;;;;;5077332;28;19905;-70
2023/04/12 07:59:33;;;;;;;;;;;358.60;2099.20;;;;;;5057250;28;19958;-71
2023/04/12 08:01:59;;;;;;;;;;;358.50;2048.00;;;;;;5065741;28;19908;-72
2023/04/12 08:04:26;;;;;;;;;;;358.50;2073.60;;;;;;5059282;28;19978;-70
2023/04/12 08:06:52;;;;;;;;;;;358.60;2048.00;;;;;;5058380;28;19912;-70
2023/04/12 08:09:18;;;;;;;;;;;358.60;2022.40;;;;;;5061293;28;19905;-72
2023/04/12 08:11:44;;;;;;;;;;;358.60;2073.60;;;;;;5060273;28;19912;-70
2023/04/12 08:14:09;;;;;;;;;;;358.60;2048.00;;;;;;5060209;28;19913;-69
2023/04/12 08:16:35;;;;;;;;;;;358.70;2099.20;;;;;;5056385;28;20270;-71
2023/04/12 08:19:01;;;;;;;;;;;358.80;2022.40;;;;;;5063950;28;19904;-70
2023/04/12 08:21:26;;;;;;;;;;;358.90;2073.60;;;;;;5053488;28;19948;-70
2023/04/12 08:23:52;;;;;;;;;;;358.90;2022.40;;;;;;5065082;28;19935;-73
2023/04/12 08:26:17;;;;;;;;;;;358.90;1996.80;;;;;;5058239;28;19905;-70
2023/04/12 08:28:43;;;;;;;;;;;359.00;2022.40;;;;;;5062346;28;19905;-75
2023/04/12 08:31:09;;;;;;;;;;;359.00;2022.40;;;;;;5062596;28;20320;-70
2023/04/12 08:33:35;;;;;;;;;;;358.90;1971.20;;;;;;5065399;28;19919;-71
2023/04/12 08:36:00;;;;;;;;;;;358.90;2022.40;;;;;;5064671;28;19905;-70
2023/04/12 08:38:26;;;;;;;;;;;358.90;1971.20;;;;;;5059927;28;19904;-76
2023/04/12 08:40:52;;;;;;;;;;;358.90;1996.80;;;;;;5061613;28;20278;-71
2023/04/12 08:43:21;;;;;;;;;;;358.90;2022.40;;;;;;5056183;28;19966;-70
2023/04/12 08:45:47;;;;;;;;;;;359.00;1996.80;;;;;;5057517;28;19971;-70
2023/04/12 08:48:14;;;;;;;;;;;359.10;1945.60;;;;;;5063766;28;20358;-70
2023/04/12 08:50:41;;;;;;;;;;;359.20;1920.00;;;;;;5055653;28;19904;-71
2023/04/12 08:53:09;;;;;;;;;;;359.20;1920.00;;;;;;5064047;28;19904;-71
2023/04/12 08:55:34;;;;;;;;;;;359.30;1920.00;;;;;;5060522;28;19991;-71
2023/04/12 08:58:06;;;;;;;;;;;359.30;1894.40;;;;;;5059968;28;20034;-71
2023/04/12 09:00:32;;;;;;;;;;;359.30;1945.60;;;;;;5059051;28;19908;-71
2023/04/12 09:02:58;;;;;;;;;;;384.10;1894.40;;;;;;5057576;28;20011;-75
2023/04/12 09:05:27;;;;;;;;;;;359.10;1843.20;;;;;;5070783;28;19911;-73
2023/04/12 09:07:53;;;;;;;;;;;359.30;1843.20;;;;;;5060508;28;19912;-72
2023/04/12 09:10:35;;;;;;;;;;;384.20;1868.80;;;;;;5064457;28;19904;-72
2023/04/12 09:13:02;;;;;;;;;;;384.40;1843.20;;;;;;5065959;28;19905;-72
2023/04/12 09:15:28;;;;;;;;;;;384.40;1766.40;;;;;;5063214;28;19979;-72
2023/04/12 09:18:04;;;;;;;;;;;384.40;1792.00;;;;;;5067916;28;20357;-72
2023/04/12 09:20:31;;;;;;;;;;;384.60;1740.80;;;;;;5058651;28;19911;-74
2023/04/12 09:22:57;;;;;;;;;;;384.70;1689.60;;;;;;5061998;28;19913;-70
2023/04/12 09:25:55;;;;;;;;;;;384.90;1664.00;;;;;;5072962;28;20382;-74
2023/04/12 09:28:22;;;;;;;;;;;384.90;1638.40;;;;;;5033115;28;19940;-70
2023/04/12 09:30:50;;;;;;;;;;;409.90;1664.00;;;;;;5033125;28;19948;-70
2023/04/12 09:33:16;;;;;;;;;;;409.90;1638.40;;;;;;5033328;28;19928;-71
2023/04/12 09:35:42;;;;;;;;;;;410.10;1664.00;;;;;;5033221;28;20012;-70
2023/04/12 09:38:11;;;;;;;;;;;410.20;1612.80;;;;;;5033649;28;20398;-69
2023/04/12 09:40:36;;;;;;;;;;;410.20;1587.20;;;;;;5033128;28;19991;-71
2023/04/12 09:43:02;;;;;;;;;;;410.20;1561.60;;;;;;5033068;28;20331;-70
2023/04/12 09:45:30;;;;;;;;;;;410.10;1561.60;;;;;;5032594;28;19997;-71
2023/04/12 09:47:56;;;;;;;;;;;410.20;1587.20;;;;;;5033226;28;19909;-71
2023/04/12 09:50:28;;;;;;;;;;;410.40;1561.60;;;;;;5032952;28;19912;-71
2023/04/12 09:52:54;;;;;;;;;;;410.50;1587.20;;;;;;5032776;28;19913;-71
2023/04/12 09:55:21;;;;;;;;;;;435.30;1561.60;;;;;;5032966;28;19976;-71
2023/04/12 09:57:48;;;;;;;;;;;410.50;1510.40;;;;;;5032812;28;20004;-72
2023/04/12 10:00:16;;;;;;;;;;;410.40;1536.00;;;;;;5033045;28;20255;-71
2023/04/12 10:02:43;;;;;;;;;;;435.20;1510.40;;;;;;5032561;28;19935;-72
2023/04/12 10:05:11;;;;;;;;;;;435.50;1510.40;;;;;;5063118;28;19905;-74
2023/04/12 10:07:43;;;;;;;;;;;435.50;1510.40;;;;;;5064629;28;19940;-72
2023/04/12 10:10:11;;;;;;;;;;;435.30;1459.20;;;;;;5065905;28;19908;-70
2023/04/12 10:12:37;;;;;;;;;;;435.50;1484.80;;;;;;5063739;28;19908;-70
2023/04/12 10:15:05;;;;;;;;;;;435.80;1459.20;;;;;;5075587;28;20357;-71
2023/04/12 10:17:31;;;;;;;;;;;436.00;1484.80;;;;;;5061186;28;19908;-70
2023/04/12 10:19:57;;;;;;;;;;;461.00;1484.80;;;;;;5072506;28;19904;-75
2023/04/12 10:22:23;;;;;;;;;;;461.30;1433.60;;;;;;5071621;28;19951;-73
2023/04/12 10:24:50;;;;;;;;;;;461.00;1433.60;;;;;;5069726;28;19911;-71
2023/04/12 10:27:23;;;;;;;;;;;461.10;1408.00;;;;;;5064042;28;19961;-72
2023/04/12 10:29:49;;;;;;;;;;;461.00;1382.40;;;;;;5058831;28;19905;-70
2023/04/12 10:32:22;;;;;;;;;;;461.30;1408.00;;;;;;5066622;28;20389;-73
2023/04/12 10:34:55;;;;;;;;;;;461.40;1382.40;;;;;;5060419;28;19912;-72
2023/04/12 10:37:21;;;;;;;;;;;461.60;1382.40;;;;;;5063071;28;19948;-70
2023/04/12 10:39:53;;;;;;;;;;;486.40;1356.80;;;;;;5062131;28;19958;-74
2023/04/12 10:42:26;;;;;;;;;;;486.60;1331.20;;;;;;5060992;28;19912;-70
2023/04/12 10:44:53;;;;;;;;;;;461.20;1382.40;;;;;;5058961;28;19923;-70
2023/04/12 10:47:37;;;;;;;;;;;461.20;1382.40;;;;;;5064675;28;19908;-70
2023/04/12 10:50:19;;;;;;;;;;;461.40;1356.80;;;;;;5062317;28;19928;-70
2023/04/12 10:53:05;;;;;;;;;;;461.30;1356.80;;;;;;5063427;28;19969;-73
2023/04/12 10:55:32;;;;;;;;;;;486.50;1331.20;;;;;;5063660;28;19909;-69
2023/04/12 10:57:57;;;;;;;;;;;486.90;1305.60;;;;;;5063683;28;19909;-70
2023/04/12 11:00:23;;;;;;;;;;;487.00;1305.60;;;;;;5063296;28;20285;-70
2023/04/12 11:03:10;;;;;;;;;;;487.00;1254.40;;;;;;5058622;28;20102;-72
2023/04/12 11:05:55;;;;;;;;;;;486.50;1305.60;;;;;;5064293;28;19915;-71
2023/04/12 11:08:22;;;;;;;;;;;461.70;1331.20;;;;;;5057275;28;20385;-70
2023/04/12 11:10:48;;;;;;;;;;;486.90;1305.60;;;;;;5057967;28;19905;-71
2023/04/12 11:13:15;;;;;;;;;;;487.10;1254.40;;;;;;5066144;28;19904;-70
2023/04/12 11:15:40;;;;;;;;;;;512.00;1254.40;;;;;;5060326;28;20255;-71
2023/04/12 11:18:06;;;;;;;;;;;487.10;1228.80;;;;;;5060741;28;19915;-71
2023/04/12 11:20:32;;;;;;;;;;;487.30;1228.80;;;;;;5062222;28;19958;-72
2023/04/12 11:22:58;;;;;;;;;;;512.20;1228.80;;;;;;5067535;28;19916;-73
2023/04/12 11:25:24;;;;;;;;;;;512.20;1228.80;;;;;;5059076;28;19909;-72
2023/04/12 11:27:50;;;;;;;;;;;487.30;1203.20;;;;;;5060152;28;19909;-75
2023/04/12 11:30:16;;;;;;;;;;;487.10;1203.20;;;;;;5059665;28;20361;-70
2023/04/12 11:32:43;;;;;;;;;;;487.00;1203.20;;;;;;5065646;28;19909;-72
2023/04/12 11:35:09;;;;;;;;;;;486.90;1254.40;;;;;;5057946;28;19912;-70
2023/04/12 11:37:34;;;;;;;;;;;486.40;1280.00;;;;;;5056275;28;19904;-70
2023/04/12 11:40:04;;;;;;;;;;;486.90;1280.00;;;;;;5064449;28;20285;-70
2023/04/12 11:42:30;;;;;;;;;;;487.00;1254.40;;;;;;5058348;28;19913;-71
2023/04/12 11:44:55;;;;;;;;;;;487.30;1228.80;;;;;;5062926;28;19912;-72
2023/04/12 11:47:22;;;;;;;;;;;487.10;1228.80;;;;;;5061514;28;19908;-71
2023/04/12 11:49:49;;;;;;;;;;;487.00;1254.40;;;;;;5056308;28;19928;-70
2023/04/12 11:52:15;;;;;;;;;;;487.00;1254.40;;;;;;5067511;28;19904;-72
2023/04/12 11:54:48;;;;;;;;;;;512.10;1203.20;;;;;;5066426;28;19905;-71
2023/04/12 11:57:14;;;;;;;;;;;512.80;1152.00;;;;;;5060083;28;19905;-74
2023/04/12 11:59:41;;;;;;;;;;;537.70;1152.00;;;;;;5061695;28;19904;-73
2023/04/12 12:02:07;;;;;;;;;;;537.70;1177.60;;;;;;5057830;28;20263;-72
2023/04/12 12:04:33;;;;;;;;;;;512.70;1177.60;;;;;;5064882;28;19915;-72
2023/04/12 12:06:59;;;;;;;;;;;537.80;1177.60;;;;;;5059873;28;20350;-72
2023/04/12 12:09:25;;;;;;;;;;;538.00;1203.20;;;;;;5058053;28;19944;-71
2023/04/12 12:11:51;;;;;;;;;;;512.60;1152.00;;;;;;5064494;28;19958;-71
2023/04/12 12:14:20;;;;;;;;;;;512.60;1152.00;;;;;;5061221;28;19908;-72
2023/04/12 12:16:53;;;;;;;;;;;512.90;1152.00;;;;;;5056932;28;19920;-71
2023/04/12 12:19:45;;;;;;;;;;;537.70;1126.40;;;;;;5068181;28;19911;-70
2023/04/12 12:22:11;;;;;;;;;;;512.70;1100.80;;;;;;5060471;28;20370;-71
2023/04/12 12:24:56;;;;;;;;;;;512.50;1126.40;;;;;;5073079;28;19939;-71
2023/04/12 12:27:36;;;;;;;;;;;512.00;1126.40;;;;;;5059950;28;19958;-71
2023/04/12 12:30:03;;;;;;;;;;;512.00;1152.00;;;;;;5057547;28;19904;-71
2023/04/12 12:32:35;;;;;;;;;;;512.60;1126.40;;;;;;5060631;28;19958;-71
2023/04/12 12:35:01;;;;;;;;;;;512.70;1075.20;;;;;;5058148;28;20015;-75
2023/04/12 12:37:28;;;;;;;;;;;512.90;1075.20;;;;;;5058475;28;19944;-72
2023/04/12 12:39:59;;;;;;;;;;;537.60;1100.80;;;;;;5065699;28;19966;-71
2023/04/12 12:42:25;;;;;;;;;;;512.80;1075.20;;;;;;5061746;28;19913;-71
2023/04/12 12:44:51;;;;;;;;;;;512.90;1075.20;;;;;;5061410;28;19915;-71
2023/04/12 12:47:16;;;;;;;;;;;512.80;1075.20;;;;;;5066667;28;19962;-72
2023/04/12 12:49:42;;;;;;;;;;;512.70;1075.20;;;;;;5062737;28;19950;-74
2023/04/12 12:52:07;;;;;;;;;;;537.80;1100.80;;;;;;5064902;28;19996;-72
2023/04/12 12:54:34;;;;;;;;;;;538.00;1049.60;;;;;;5067148;28;19948;-72
2023/04/12 12:57:00;;;;;;;;;;;538.10;1049.60;;;;;;5072025;28;20335;-71
2023/04/12 12:59:26;;;;;;;;;;;538.00;1049.60;;;;;;5059411;28;19905;-72
2023/04/12 13:01:51;;;;;;;;;;;538.00;1049.60;;;;;;5062723;28;20274;-72
2023/04/12 13:04:17;;;;;;;;;;;537.90;1075.20;;;;;;5063209;28;19940;-72
2023/04/12 13:06:42;;;;;;;;;;;538.10;1075.20;;;;;;5065063;28;19905;-73
2023/04/12 13:09:08;;;;;;;;;;;512.70;1075.20;;;;;;5065405;28;20354;-70
2023/04/12 13:11:33;;;;;;;;;;;512.70;1075.20;;;;;;5059885;28;20441;-71
2023/04/12 13:13:59;;;;;;;;;;;537.70;1100.80;;;;;;5067203;28;19971;-71
2023/04/12 13:16:25;;;;;;;;;;;512.60;1075.20;;;;;;5063220;28;19991;-71
2023/04/12 13:18:50;;;;;;;;;;;512.60;1049.60;;;;;;5063334;28;19904;-71
2023/04/12 13:21:16;;;;;;;;;;;512.90;1049.60;;;;;;5065875;28;19961;-72
2023/04/12 13:23:41;;;;;;;;;;;537.80;1049.60;;;;;;5064827;28;19920;-71
2023/04/12 13:26:07;;;;;;;;;;;537.90;1049.60;;;;;;5064913;28;19906;-72
2023/04/12 13:28:32;;;;;;;;;;;537.80;1024.00;;;;;;5058867;28;19908;-71
2023/04/12 13:30:58;;;;;;;;;;;538.10;1049.60;;;;;;5071626;28;19911;-70
2023/04/12 13:33:23;;;;;;;;;;;538.30;1049.60;;;;;;5062841;28;20003;-70
2023/04/12 13:35:49;;;;;;;;;;;538.20;1024.00;;;;;;5069440;28;19908;-71
2023/04/12 13:38:15;;;;;;;;;;;538.20;1024.00;;;;;;5066159;28;20357;-71
2023/04/12 13:40:40;;;;;;;;;;;538.20;1024.00;;;;;;5058837;28;20397;-71